sensor_id;sensor_type;location;lat;lon;timestamp;P1;durP1;ratioP1;P2;durP2;ratioP2
3439;SDS011;1733;42.286;22.690;2023-07-31T00:01:46;4.40;;;4.07;;
3439;SDS011;1733;42.286;22.690;2023-07-31T00:04:13;5.47;;;4.20;;
3439;SDS011;1733;42.286;22.690;2023-07-31T00:06:40;6.60;;;4.47;;
3439;SDS011;1733;42.286;22.690;2023-07-31T00:09:08;4.70;;;4.30;;
3439;SDS011;1733;42.286;22.690;2023-07-31T00:11:35;4.40;;;3.70;;
3439;SDS011;1733;42.286;22.690;2023-07-31T00:14:02;3.40;;;3.20;;
3439;SDS011;1733;42.286;22.690;2023-07-31T00:16:29;5.80;;;4.33;;
3439;SDS011;1733;42.286;22.690;2023-07-31T00:18:56;7.13;;;4.53;;
3439;SDS011;1733;42.286;22.690;2023-07-31T00:21:23;5.33;;;4.50;;
3439;SDS011;1733;42.286;22.690;2023-07-31T00:23:49;6.03;;;4.63;;
3439;SDS011;1733;42.286;22.690;2023-07-31T00:26:18;8.90;;;4.47;;
3439;SDS011;1733;42.286;22.690;2023-07-31T00:28:44;5.03;;;4.63;;
3439;SDS011;1733;42.286;22.690;2023-07-31T00:31:11;6.63;;;4.33;;
3439;SDS011;1733;42.286;22.690;2023-07-31T00:33:38;5.10;;;4.00;;
3439;SDS011;1733;42.286;22.690;2023-07-31T00:36:05;5.53;;;5.00;;
3439;SDS011;1733;42.286;22.690;2023-07-31T00:38:32;6.27;;;5.67;;
3439;SDS011;1733;42.286;22.690;2023-07-31T00:40:59;5.77;;;5.17;;
3439;SDS011;1733;42.286;22.690;2023-07-31T00:43:27;4.50;;;3.80;;
3439;SDS011;1733;42.286;22.690;2023-07-31T00:45:54;8.73;;;5.70;;
3439;SDS011;1733;42.286;22.690;2023-07-31T00:48:21;4.87;;;4.47;;
3439;SDS011;1733;42.286;22.690;2023-07-31T00:50:48;7.93;;;5.57;;
3439;SDS011;1733;42.286;22.690;2023-07-31T00:53:16;6.17;;;5.10;;
3439;SDS011;1733;42.286;22.690;2023-07-31T00:55:43;6.30;;;4.20;;
3439;SDS011;1733;42.286;22.690;2023-07-31T00:58:11;6.73;;;5.20;;
3439;SDS011;1733;42.286;22.690;2023-07-31T01:00:39;5.63;;;5.03;;
3439;SDS011;1733;42.286;22.690;2023-07-31T01:03:06;10.77;;;5.30;;
3439;SDS011;1733;42.286;22.690;2023-07-31T01:05:33;7.53;;;4.50;;
3439;SDS011;1733;42.286;22.690;2023-07-31T01:08:12;6.27;;;5.50;;
3439;SDS011;1733;42.286;22.690;2023-07-31T01:10:46;7.37;;;5.43;;
3439;SDS011;1733;42.286;22.690;2023-07-31T01:13:17;7.27;;;4.33;;
3439;SDS011;1733;42.286;22.690;2023-07-31T01:15:45;7.90;;;5.60;;
3439;SDS011;1733;42.286;22.690;2023-07-31T01:18:12;6.50;;;5.50;;
3439;SDS011;1733;42.286;22.690;2023-07-31T01:20:39;5.53;;;4.33;;
3439;SDS011;1733;42.286;22.690;2023-07-31T01:23:15;5.07;;;4.50;;
3439;SDS011;1733;42.286;22.690;2023-07-31T01:26:04;8.00;;;4.77;;
3439;SDS011;1733;42.286;22.690;2023-07-31T01:28:40;8.07;;;4.43;;
3439;SDS011;1733;42.286;22.690;2023-07-31T01:31:14;5.10;;;4.33;;
3439;SDS011;1733;42.286;22.690;2023-07-31T01:33:46;5.17;;;4.57;;
3439;SDS011;1733;42.286;22.690;2023-07-31T01:36:14;5.30;;;4.53;;
3439;SDS011;1733;42.286;22.690;2023-07-31T01:38:41;3.83;;;3.53;;
3439;SDS011;1733;42.286;22.690;2023-07-31T01:41:09;6.03;;;5.27;;
3439;SDS011;1733;42.286;22.690;2023-07-31T01:43:36;5.77;;;4.53;;
3439;SDS011;1733;42.286;22.690;2023-07-31T01:46:03;6.43;;;4.27;;
3439;SDS011;1733;42.286;22.690;2023-07-31T01:48:30;6.20;;;4.33;;
3439;SDS011;1733;42.286;22.690;2023-07-31T01:51:00;5.27;;;4.87;;
3439;SDS011;1733;42.286;22.690;2023-07-31T01:53:28;4.33;;;3.93;;
3439;SDS011;1733;42.286;22.690;2023-07-31T01:55:55;5.47;;;4.37;;
3439;SDS011;1733;42.286;22.690;2023-07-31T01:58:23;5.53;;;3.63;;
3439;SDS011;1733;42.286;22.690;2023-07-31T02:00:50;5.37;;;4.87;;
3439;SDS011;1733;42.286;22.690;2023-07-31T02:03:17;4.30;;;4.00;;
3439;SDS011;1733;42.286;22.690;2023-07-31T02:05:44;4.90;;;4.50;;
3439;SDS011;1733;42.286;22.690;2023-07-31T02:08:11;6.43;;;4.50;;
3439;SDS011;1733;42.286;22.690;2023-07-31T02:10:37;6.30;;;4.97;;
3439;SDS011;1733;42.286;22.690;2023-07-31T02:13:04;7.50;;;5.17;;
3439;SDS011;1733;42.286;22.690;2023-07-31T02:15:33;7.63;;;4.70;;
3439;SDS011;1733;42.286;22.690;2023-07-31T02:18:00;7.70;;;4.10;;
3439;SDS011;1733;42.286;22.690;2023-07-31T02:20:26;4.43;;;4.03;;
3439;SDS011;1733;42.286;22.690;2023-07-31T02:22:53;4.47;;;4.07;;
3439;SDS011;1733;42.286;22.690;2023-07-31T02:25:20;5.80;;;4.80;;
3439;SDS011;1733;42.286;22.690;2023-07-31T02:27:47;10.67;;;6.57;;
3439;SDS011;1733;42.286;22.690;2023-07-31T02:30:14;6.83;;;4.30;;
3439;SDS011;1733;42.286;22.690;2023-07-31T02:32:42;4.90;;;4.50;;
3439;SDS011;1733;42.286;22.690;2023-07-31T02:35:08;5.47;;;4.97;;
3439;SDS011;1733;42.286;22.690;2023-07-31T02:37:35;3.53;;;3.33;;
3439;SDS011;1733;42.286;22.690;2023-07-31T02:40:04;4.10;;;3.70;;
3439;SDS011;1733;42.286;22.690;2023-07-31T02:42:31;5.33;;;4.90;;
3439;SDS011;1733;42.286;22.690;2023-07-31T02:44:58;5.67;;;3.97;;
3439;SDS011;1733;42.286;22.690;2023-07-31T02:47:25;5.53;;;5.03;;
3439;SDS011;1733;42.286;22.690;2023-07-31T02:49:53;4.63;;;4.20;;
3439;SDS011;1733;42.286;22.690;2023-07-31T02:52:21;4.73;;;4.30;;
3439;SDS011;1733;42.286;22.690;2023-07-31T02:54:48;5.50;;;4.43;;
3439;SDS011;1733;42.286;22.690;2023-07-31T02:57:15;4.80;;;4.40;;
3439;SDS011;1733;42.286;22.690;2023-07-31T02:59:42;15.33;;;3.87;;
3439;SDS011;1733;42.286;22.690;2023-07-31T03:02:09;3.67;;;3.37;;
3439;SDS011;1733;42.286;22.690;2023-07-31T03:04:36;5.10;;;4.13;;
3439;SDS011;1733;42.286;22.690;2023-07-31T03:07:04;4.93;;;4.40;;
3439;SDS011;1733;42.286;22.690;2023-07-31T03:09:31;7.23;;;6.53;;
3439;SDS011;1733;42.286;22.690;2023-07-31T03:11:58;4.70;;;4.17;;
3439;SDS011;1733;42.286;22.690;2023-07-31T03:14:25;4.43;;;4.03;;
3439;SDS011;1733;42.286;22.690;2023-07-31T03:16:53;5.73;;;4.53;;
3439;SDS011;1733;42.286;22.690;2023-07-31T03:19:20;5.17;;;4.30;;
3439;SDS011;1733;42.286;22.690;2023-07-31T03:21:47;7.47;;;5.20;;
3439;SDS011;1733;42.286;22.690;2023-07-31T03:24:15;5.80;;;4.40;;
3439;SDS011;1733;42.286;22.690;2023-07-31T03:26:42;4.23;;;3.80;;
3439;SDS011;1733;42.286;22.690;2023-07-31T03:29:09;4.80;;;4.40;;
3439;SDS011;1733;42.286;22.690;2023-07-31T03:31:36;3.83;;;3.53;;
3439;SDS011;1733;42.286;22.690;2023-07-31T03:34:02;5.33;;;3.60;;
3439;SDS011;1733;42.286;22.690;2023-07-31T03:36:29;5.43;;;3.77;;
3439;SDS011;1733;42.286;22.690;2023-07-31T03:38:57;4.17;;;3.77;;
3439;SDS011;1733;42.286;22.690;2023-07-31T03:41:25;3.63;;;3.20;;
3439;SDS011;1733;42.286;22.690;2023-07-31T03:43:52;8.93;;;4.40;;
3439;SDS011;1733;42.286;22.690;2023-07-31T03:46:21;14.23;;;4.20;;
3439;SDS011;1733;42.286;22.690;2023-07-31T03:48:47;5.80;;;4.57;;
3439;SDS011;1733;42.286;22.690;2023-07-31T03:51:15;6.10;;;5.60;;
3439;SDS011;1733;42.286;22.690;2023-07-31T03:53:42;8.50;;;4.13;;
3439;SDS011;1733;42.286;22.690;2023-07-31T03:56:10;3.10;;;2.83;;
3439;SDS011;1733;42.286;22.690;2023-07-31T03:58:38;5.40;;;4.90;;
3439;SDS011;1733;42.286;22.690;2023-07-31T04:01:05;5.40;;;4.37;;
3439;SDS011;1733;42.286;22.690;2023-07-31T04:03:32;4.30;;;4.00;;
3439;SDS011;1733;42.286;22.690;2023-07-31T04:05:59;7.07;;;4.67;;
3439;SDS011;1733;42.286;22.690;2023-07-31T04:08:26;8.30;;;5.00;;
3439;SDS011;1733;42.286;22.690;2023-07-31T04:10:52;4.40;;;3.80;;
3439;SDS011;1733;42.286;22.690;2023-07-31T04:13:21;5.83;;;4.30;;
3439;SDS011;1733;42.286;22.690;2023-07-31T04:15:50;7.00;;;5.03;;
3439;SDS011;1733;42.286;22.690;2023-07-31T04:18:16;8.17;;;4.50;;
3439;SDS011;1733;42.286;22.690;2023-07-31T04:20:43;7.70;;;6.77;;
3439;SDS011;1733;42.286;22.690;2023-07-31T04:23:10;7.20;;;4.70;;
3439;SDS011;1733;42.286;22.690;2023-07-31T04:25:37;4.40;;;3.87;;
3439;SDS011;1733;42.286;22.690;2023-07-31T04:28:04;9.30;;;4.33;;
3439;SDS011;1733;42.286;22.690;2023-07-31T04:30:32;8.40;;;5.00;;
3439;SDS011;1733;42.286;22.690;2023-07-31T04:33:00;6.40;;;5.50;;
3439;SDS011;1733;42.286;22.690;2023-07-31T04:35:28;7.53;;;5.90;;
3439;SDS011;1733;42.286;22.690;2023-07-31T04:37:54;8.80;;;5.80;;
3439;SDS011;1733;42.286;22.690;2023-07-31T04:40:21;9.80;;;5.67;;
3439;SDS011;1733;42.286;22.690;2023-07-31T04:42:48;8.60;;;6.13;;
3439;SDS011;1733;42.286;22.690;2023-07-31T04:45:15;8.43;;;5.40;;
3439;SDS011;1733;42.286;22.690;2023-07-31T04:47:42;9.30;;;6.20;;
3439;SDS011;1733;42.286;22.690;2023-07-31T04:50:11;8.80;;;6.27;;
3439;SDS011;1733;42.286;22.690;2023-07-31T04:52:38;9.13;;;5.70;;
3439;SDS011;1733;42.286;22.690;2023-07-31T04:55:05;15.80;;;8.37;;
3439;SDS011;1733;42.286;22.690;2023-07-31T04:57:32;9.77;;;6.10;;
3439;SDS011;1733;42.286;22.690;2023-07-31T04:59:59;9.93;;;6.27;;
3439;SDS011;1733;42.286;22.690;2023-07-31T05:02:26;8.53;;;6.20;;
3439;SDS011;1733;42.286;22.690;2023-07-31T05:04:53;12.73;;;7.40;;
3439;SDS011;1733;42.286;22.690;2023-07-31T05:07:21;10.43;;;8.17;;
3439;SDS011;1733;42.286;22.690;2023-07-31T05:09:48;7.13;;;5.80;;
3439;SDS011;1733;42.286;22.690;2023-07-31T05:12:15;7.37;;;5.97;;
3439;SDS011;1733;42.286;22.690;2023-07-31T05:14:42;6.70;;;6.10;;
3439;SDS011;1733;42.286;22.690;2023-07-31T05:17:09;10.50;;;7.07;;
3439;SDS011;1733;42.286;22.690;2023-07-31T05:19:36;15.87;;;8.43;;
3439;SDS011;1733;42.286;22.690;2023-07-31T05:22:03;11.00;;;7.67;;
3439;SDS011;1733;42.286;22.690;2023-07-31T05:24:32;7.10;;;5.33;;
3439;SDS011;1733;42.286;22.690;2023-07-31T05:26:59;8.23;;;7.03;;
3439;SDS011;1733;42.286;22.690;2023-07-31T05:29:25;8.30;;;6.53;;
3439;SDS011;1733;42.286;22.690;2023-07-31T05:31:52;10.07;;;7.07;;
3439;SDS011;1733;42.286;22.690;2023-07-31T05:34:20;13.77;;;7.60;;
3439;SDS011;1733;42.286;22.690;2023-07-31T05:36:46;11.20;;;6.63;;
3439;SDS011;1733;42.286;22.690;2023-07-31T05:39:13;13.73;;;8.23;;
3439;SDS011;1733;42.286;22.690;2023-07-31T05:41:41;15.73;;;8.97;;
3439;SDS011;1733;42.286;22.690;2023-07-31T05:44:08;13.23;;;7.80;;
3439;SDS011;1733;42.286;22.690;2023-07-31T05:46:35;24.23;;;13.60;;
3439;SDS011;1733;42.286;22.690;2023-07-31T05:49:02;13.40;;;9.97;;
3439;SDS011;1733;42.286;22.690;2023-07-31T05:51:29;15.93;;;8.90;;
3439;SDS011;1733;42.286;22.690;2023-07-31T05:53:55;10.53;;;7.50;;
3439;SDS011;1733;42.286;22.690;2023-07-31T05:56:22;8.20;;;7.50;;
3439;SDS011;1733;42.286;22.690;2023-07-31T05:58:50;13.73;;;8.70;;
3439;SDS011;1733;42.286;22.690;2023-07-31T06:01:17;12.13;;;7.43;;
3439;SDS011;1733;42.286;22.690;2023-07-31T06:03:46;10.60;;;7.37;;
3439;SDS011;1733;42.286;22.690;2023-07-31T06:06:13;11.83;;;7.20;;
3439;SDS011;1733;42.286;22.690;2023-07-31T06:08:40;17.13;;;9.13;;
3439;SDS011;1733;42.286;22.690;2023-07-31T06:11:07;12.80;;;8.10;;
3439;SDS011;1733;42.286;22.690;2023-07-31T06:13:34;12.37;;;6.60;;
3439;SDS011;1733;42.286;22.690;2023-07-31T06:16:02;13.87;;;9.00;;
3439;SDS011;1733;42.286;22.690;2023-07-31T06:18:31;8.15;;;7.35;;
3439;SDS011;1733;42.286;22.690;2023-07-31T06:20:58;7.57;;;6.90;;
3439;SDS011;1733;42.286;22.690;2023-07-31T06:23:25;13.90;;;7.13;;
3439;SDS011;1733;42.286;22.690;2023-07-31T06:25:52;11.90;;;7.93;;
3439;SDS011;1733;42.286;22.690;2023-07-31T06:28:18;16.13;;;7.38;;
3439;SDS011;1733;42.286;22.690;2023-07-31T06:30:45;13.43;;;8.02;;
3439;SDS011;1733;42.286;22.690;2023-07-31T06:33:14;13.32;;;8.48;;
3439;SDS011;1733;42.286;22.690;2023-07-31T06:35:40;19.27;;;8.32;;
3439;SDS011;1733;42.286;22.690;2023-07-31T06:38:07;13.70;;;9.07;;
3439;SDS011;1733;42.286;22.690;2023-07-31T06:40:34;9.80;;;8.45;;
3439;SDS011;1733;42.286;22.690;2023-07-31T06:43:01;12.25;;;8.00;;
3439;SDS011;1733;42.286;22.690;2023-07-31T06:45:33;10.55;;;7.60;;
3439;SDS011;1733;42.286;22.690;2023-07-31T06:48:00;9.80;;;7.57;;
3439;SDS011;1733;42.286;22.690;2023-07-31T06:50:28;11.35;;;9.35;;
3439;SDS011;1733;42.286;22.690;2023-07-31T06:52:55;11.52;;;7.60;;
3439;SDS011;1733;42.286;22.690;2023-07-31T06:55:23;8.35;;;7.05;;
3439;SDS011;1733;42.286;22.690;2023-07-31T06:57:51;12.18;;;8.00;;
3439;SDS011;1733;42.286;22.690;2023-07-31T07:00:19;13.70;;;8.40;;
3439;SDS011;1733;42.286;22.690;2023-07-31T07:02:46;14.90;;;7.80;;
3439;SDS011;1733;42.286;22.690;2023-07-31T07:05:14;12.80;;;8.20;;
3439;SDS011;1733;42.286;22.690;2023-07-31T07:07:43;14.32;;;8.32;;
3439;SDS011;1733;42.286;22.690;2023-07-31T07:10:09;14.93;;;8.10;;
3439;SDS011;1733;42.286;22.690;2023-07-31T07:12:36;11.68;;;8.68;;
3439;SDS011;1733;42.286;22.690;2023-07-31T07:15:03;8.77;;;7.25;;
3439;SDS011;1733;42.286;22.690;2023-07-31T07:17:31;11.77;;;8.43;;
3439;SDS011;1733;42.286;22.690;2023-07-31T07:19:57;10.80;;;7.85;;
3439;SDS011;1733;42.286;22.690;2023-07-31T07:22:25;8.68;;;6.22;;
3439;SDS011;1733;42.286;22.690;2023-07-31T07:24:53;13.90;;;8.27;;
3439;SDS011;1733;42.286;22.690;2023-07-31T07:27:20;13.07;;;7.00;;
3439;SDS011;1733;42.286;22.690;2023-07-31T07:29:49;9.85;;;7.15;;
3439;SDS011;1733;42.286;22.690;2023-07-31T07:32:16;10.50;;;7.32;;
3439;SDS011;1733;42.286;22.690;2023-07-31T07:34:43;8.43;;;6.70;;
3439;SDS011;1733;42.286;22.690;2023-07-31T07:37:11;10.95;;;5.63;;
3439;SDS011;1733;42.286;22.690;2023-07-31T07:39:37;9.45;;;6.18;;
3439;SDS011;1733;42.286;22.690;2023-07-31T07:42:06;7.35;;;4.90;;
3439;SDS011;1733;42.286;22.690;2023-07-31T07:44:32;10.80;;;5.78;;
3439;SDS011;1733;42.286;22.690;2023-07-31T07:46:59;7.45;;;6.18;;
3439;SDS011;1733;42.286;22.690;2023-07-31T07:49:26;5.78;;;4.65;;
3439;SDS011;1733;42.286;22.690;2023-07-31T07:51:53;6.07;;;5.35;;
3439;SDS011;1733;42.286;22.690;2023-07-31T07:54:20;5.97;;;4.60;;
3439;SDS011;1733;42.286;22.690;2023-07-31T07:56:47;5.72;;;5.22;;
3439;SDS011;1733;42.286;22.690;2023-07-31T07:59:16;6.82;;;5.35;;
3439;SDS011;1733;42.286;22.690;2023-07-31T08:01:43;6.47;;;5.40;;
3439;SDS011;1733;42.286;22.690;2023-07-31T08:04:09;5.47;;;4.35;;
3439;SDS011;1733;42.286;22.690;2023-07-31T08:06:36;7.43;;;6.35;;
3439;SDS011;1733;42.286;22.690;2023-07-31T08:09:03;11.23;;;4.65;;
3439;SDS011;1733;42.286;22.690;2023-07-31T08:11:31;7.57;;;5.30;;
3439;SDS011;1733;42.286;22.690;2023-07-31T08:13:58;6.53;;;5.35;;
3439;SDS011;1733;42.286;22.690;2023-07-31T08:16:26;6.70;;;4.93;;
3439;SDS011;1733;42.286;22.690;2023-07-31T08:18:53;5.05;;;4.45;;
3439;SDS011;1733;42.286;22.690;2023-07-31T08:21:20;4.90;;;4.40;;
3439;SDS011;1733;42.286;22.690;2023-07-31T08:23:47;6.38;;;4.10;;
3439;SDS011;1733;42.286;22.690;2023-07-31T08:26:14;7.65;;;4.55;;
3439;SDS011;1733;42.286;22.690;2023-07-31T08:28:42;6.38;;;5.55;;
3439;SDS011;1733;42.286;22.690;2023-07-31T08:31:09;5.80;;;5.30;;
3439;SDS011;1733;42.286;22.690;2023-07-31T08:33:37;6.22;;;4.53;;
3439;SDS011;1733;42.286;22.690;2023-07-31T08:36:05;6.28;;;4.65;;
3439;SDS011;1733;42.286;22.690;2023-07-31T08:38:32;4.75;;;3.72;;
3439;SDS011;1733;42.286;22.690;2023-07-31T08:40:59;7.00;;;5.78;;
3439;SDS011;1733;42.286;22.690;2023-07-31T08:43:26;5.22;;;4.18;;
3439;SDS011;1733;42.286;22.690;2023-07-31T08:45:54;4.55;;;4.15;;
3439;SDS011;1733;42.286;22.690;2023-07-31T08:48:21;7.18;;;3.53;;
3439;SDS011;1733;42.286;22.690;2023-07-31T08:50:50;4.88;;;4.43;;
3439;SDS011;1733;42.286;22.690;2023-07-31T08:53:18;3.08;;;2.80;;
3439;SDS011;1733;42.286;22.690;2023-07-31T08:55:45;4.75;;;3.72;;
3439;SDS011;1733;42.286;22.690;2023-07-31T08:58:13;7.60;;;4.10;;
3439;SDS011;1733;42.286;22.690;2023-07-31T09:00:41;7.82;;;4.30;;
3439;SDS011;1733;42.286;22.690;2023-07-31T09:03:12;3.50;;;3.20;;
3439;SDS011;1733;42.286;22.690;2023-07-31T09:05:41;4.78;;;3.92;;
3439;SDS011;1733;42.286;22.690;2023-07-31T09:08:12;4.07;;;3.50;;
3439;SDS011;1733;42.286;22.690;2023-07-31T09:10:40;4.05;;;3.67;;
3439;SDS011;1733;42.286;22.690;2023-07-31T09:13:08;4.55;;;3.70;;
3439;SDS011;1733;42.286;22.690;2023-07-31T09:15:35;3.17;;;2.92;;
3439;SDS011;1733;42.286;22.690;2023-07-31T09:18:02;3.90;;;3.50;;
3439;SDS011;1733;42.286;22.690;2023-07-31T09:20:30;4.97;;;3.50;;
3439;SDS011;1733;42.286;22.690;2023-07-31T09:23:00;3.10;;;2.80;;
3439;SDS011;1733;42.286;22.690;2023-07-31T09:25:33;3.60;;;2.50;;
3439;SDS011;1733;42.286;22.690;2023-07-31T09:28:01;3.90;;;2.63;;
3439;SDS011;1733;42.286;22.690;2023-07-31T09:30:29;4.60;;;2.92;;
3439;SDS011;1733;42.286;22.690;2023-07-31T09:33:00;2.45;;;2.25;;
3439;SDS011;1733;42.286;22.690;2023-07-31T09:35:28;2.70;;;2.50;;
3439;SDS011;1733;42.286;22.690;2023-07-31T09:37:57;2.97;;;2.67;;
3439;SDS011;1733;42.286;22.690;2023-07-31T09:40:26;4.05;;;2.00;;
3439;SDS011;1733;42.286;22.690;2023-07-31T09:42:57;3.13;;;2.15;;
3439;SDS011;1733;42.286;22.690;2023-07-31T09:45:26;2.60;;;2.40;;
3439;SDS011;1733;42.286;22.690;2023-07-31T09:47:53;5.15;;;2.83;;
3439;SDS011;1733;42.286;22.690;2023-07-31T09:50:20;4.47;;;2.38;;
3439;SDS011;1733;42.286;22.690;2023-07-31T09:52:48;2.33;;;1.88;;
3439;SDS011;1733;42.286;22.690;2023-07-31T09:55:15;3.15;;;2.83;;
3439;SDS011;1733;42.286;22.690;2023-07-31T09:57:44;3.92;;;2.40;;
3439;SDS011;1733;42.286;22.690;2023-07-31T10:00:14;1.75;;;1.55;;
3439;SDS011;1733;42.286;22.690;2023-07-31T10:02:43;1.80;;;1.58;;
3439;SDS011;1733;42.286;22.690;2023-07-31T10:05:12;4.75;;;2.80;;
3439;SDS011;1733;42.286;22.690;2023-07-31T10:07:41;3.10;;;2.38;;
3439;SDS011;1733;42.286;22.690;2023-07-31T10:10:19;2.60;;;2.40;;
3439;SDS011;1733;42.286;22.690;2023-07-31T10:12:46;4.15;;;3.28;;
3439;SDS011;1733;42.286;22.690;2023-07-31T10:15:15;2.38;;;2.17;;
3439;SDS011;1733;42.286;22.690;2023-07-31T10:17:43;2.30;;;2.10;;
3439;SDS011;1733;42.286;22.690;2023-07-31T10:20:10;3.38;;;3.00;;
3439;SDS011;1733;42.286;22.690;2023-07-31T10:22:37;3.70;;;2.42;;
3439;SDS011;1733;42.286;22.690;2023-07-31T10:25:05;3.42;;;2.45;;
3439;SDS011;1733;42.286;22.690;2023-07-31T10:27:34;2.53;;;2.28;;
3439;SDS011;1733;42.286;22.690;2023-07-31T10:30:01;2.75;;;2.53;;
3439;SDS011;1733;42.286;22.690;2023-07-31T10:32:33;2.92;;;2.45;;
3439;SDS011;1733;42.286;22.690;2023-07-31T10:35:01;3.75;;;3.47;;
3439;SDS011;1733;42.286;22.690;2023-07-31T10:37:28;4.22;;;3.58;;
3439;SDS011;1733;42.286;22.690;2023-07-31T10:40:03;5.07;;;4.10;;
3439;SDS011;1733;42.286;22.690;2023-07-31T10:42:31;9.20;;;4.15;;
3439;SDS011;1733;42.286;22.690;2023-07-31T10:45:00;5.28;;;4.07;;
3439;SDS011;1733;42.286;22.690;2023-07-31T10:47:29;3.88;;;3.58;;
3439;SDS011;1733;42.286;22.690;2023-07-31T10:52:39;4.55;;;3.50;;
3439;SDS011;1733;42.286;22.690;2023-07-31T10:55:13;3.25;;;3.05;;
3439;SDS011;1733;42.286;22.690;2023-07-31T10:57:56;2.95;;;2.67;;
3439;SDS011;1733;42.286;22.690;2023-07-31T11:00:25;3.28;;;2.97;;
3439;SDS011;1733;42.286;22.690;2023-07-31T11:02:56;3.70;;;3.33;;
3439;SDS011;1733;42.286;22.690;2023-07-31T11:05:48;3.65;;;2.78;;
3439;SDS011;1733;42.286;22.690;2023-07-31T11:08:18;3.33;;;3.13;;
3439;SDS011;1733;42.286;22.690;2023-07-31T11:10:48;3.30;;;3.03;;
3439;SDS011;1733;42.286;22.690;2023-07-31T11:13:17;3.63;;;2.80;;
3439;SDS011;1733;42.286;22.690;2023-07-31T11:15:44;3.15;;;2.78;;
3439;SDS011;1733;42.286;22.690;2023-07-31T11:18:11;3.83;;;2.53;;
3439;SDS011;1733;42.286;22.690;2023-07-31T11:20:38;3.88;;;3.35;;
3439;SDS011;1733;42.286;22.690;2023-07-31T11:23:07;3.40;;;2.78;;
3439;SDS011;1733;42.286;22.690;2023-07-31T11:25:35;3.25;;;2.95;;
3439;SDS011;1733;42.286;22.690;2023-07-31T11:28:04;6.32;;;3.90;;
3439;SDS011;1733;42.286;22.690;2023-07-31T11:30:31;3.90;;;3.55;;
3439;SDS011;1733;42.286;22.690;2023-07-31T11:32:59;3.53;;;3.08;;
3439;SDS011;1733;42.286;22.690;2023-07-31T11:35:28;4.35;;;3.85;;
3439;SDS011;1733;42.286;22.690;2023-07-31T11:37:55;6.18;;;3.95;;
3439;SDS011;1733;42.286;22.690;2023-07-31T11:40:23;4.07;;;3.33;;
3439;SDS011;1733;42.286;22.690;2023-07-31T11:42:54;5.05;;;4.38;;
3439;SDS011;1733;42.286;22.690;2023-07-31T11:45:24;4.55;;;4.05;;
3439;SDS011;1733;42.286;22.690;2023-07-31T11:47:51;3.95;;;3.60;;
3439;SDS011;1733;42.286;22.690;2023-07-31T11:50:18;4.20;;;3.80;;
3439;SDS011;1733;42.286;22.690;2023-07-31T11:52:45;4.72;;;4.38;;
3439;SDS011;1733;42.286;22.690;2023-07-31T11:55:14;7.22;;;5.13;;
3439;SDS011;1733;42.286;22.690;2023-07-31T11:57:44;5.80;;;4.38;;
3439;SDS011;1733;42.286;22.690;2023-07-31T12:00:13;4.15;;;3.10;;
3439;SDS011;1733;42.286;22.690;2023-07-31T12:02:41;6.30;;;4.63;;
3439;SDS011;1733;42.286;22.690;2023-07-31T12:05:10;4.88;;;4.45;;
3439;SDS011;1733;42.286;22.690;2023-07-31T12:07:44;5.03;;;4.53;;
3439;SDS011;1733;42.286;22.690;2023-07-31T12:10:26;5.13;;;3.15;;
3439;SDS011;1733;42.286;22.690;2023-07-31T12:13:02;6.05;;;4.72;;
3439;SDS011;1733;42.286;22.690;2023-07-31T12:15:34;6.60;;;4.97;;
3439;SDS011;1733;42.286;22.690;2023-07-31T12:18:06;6.50;;;4.35;;
3439;SDS011;1733;42.286;22.690;2023-07-31T12:20:35;4.10;;;3.42;;
3439;SDS011;1733;42.286;22.690;2023-07-31T12:23:02;5.40;;;4.13;;
3439;SDS011;1733;42.286;22.690;2023-07-31T12:25:32;5.53;;;4.63;;
3439;SDS011;1733;42.286;22.690;2023-07-31T12:28:05;15.32;;;3.83;;
3439;SDS011;1733;42.286;22.690;2023-07-31T12:30:37;7.63;;;4.68;;
3439;SDS011;1733;42.286;22.690;2023-07-31T12:33:05;4.75;;;4.13;;
3439;SDS011;1733;42.286;22.690;2023-07-31T12:35:36;5.38;;;4.43;;
3439;SDS011;1733;42.286;22.690;2023-07-31T12:38:04;7.93;;;5.22;;
3439;SDS011;1733;42.286;22.690;2023-07-31T12:40:31;5.22;;;4.50;;
3439;SDS011;1733;42.286;22.690;2023-07-31T12:42:58;7.60;;;5.70;;
3439;SDS011;1733;42.286;22.690;2023-07-31T12:45:28;4.93;;;4.43;;
3439;SDS011;1733;42.286;22.690;2023-07-31T12:47:55;4.35;;;3.75;;
3439;SDS011;1733;42.286;22.690;2023-07-31T12:50:22;5.85;;;4.30;;
3439;SDS011;1733;42.286;22.690;2023-07-31T12:52:50;7.88;;;4.72;;
3439;SDS011;1733;42.286;22.690;2023-07-31T12:55:17;6.20;;;4.30;;
3439;SDS011;1733;42.286;22.690;2023-07-31T12:57:44;4.70;;;4.28;;
3439;SDS011;1733;42.286;22.690;2023-07-31T13:00:12;4.50;;;4.03;;
3439;SDS011;1733;42.286;22.690;2023-07-31T13:02:40;5.35;;;4.47;;
3439;SDS011;1733;42.286;22.690;2023-07-31T13:05:08;6.78;;;4.25;;
3439;SDS011;1733;42.286;22.690;2023-07-31T13:07:35;4.78;;;4.30;;
3439;SDS011;1733;42.286;22.690;2023-07-31T13:10:01;4.20;;;3.80;;
3439;SDS011;1733;42.286;22.690;2023-07-31T13:12:28;3.40;;;3.10;;
3439;SDS011;1733;42.286;22.690;2023-07-31T13:14:55;5.32;;;4.10;;
3439;SDS011;1733;42.286;22.690;2023-07-31T13:17:22;6.53;;;4.40;;
3439;SDS011;1733;42.286;22.690;2023-07-31T13:19:50;6.20;;;4.65;;
3439;SDS011;1733;42.286;22.690;2023-07-31T13:22:17;6.28;;;4.97;;
3439;SDS011;1733;42.286;22.690;2023-07-31T13:24:44;4.25;;;3.85;;
3439;SDS011;1733;42.286;22.690;2023-07-31T13:27:11;4.97;;;4.50;;
3439;SDS011;1733;42.286;22.690;2023-07-31T13:29:38;5.80;;;5.07;;
3439;SDS011;1733;42.286;22.690;2023-07-31T13:32:05;6.03;;;5.47;;
3439;SDS011;1733;42.286;22.690;2023-07-31T13:34:32;5.38;;;4.88;;
3439;SDS011;1733;42.286;22.690;2023-07-31T13:37:00;6.80;;;5.82;;
3439;SDS011;1733;42.286;22.690;2023-07-31T13:39:27;5.60;;;5.05;;
3439;SDS011;1733;42.286;22.690;2023-07-31T13:41:54;6.05;;;5.45;;
3439;SDS011;1733;42.286;22.690;2023-07-31T13:44:21;5.10;;;4.28;;
3439;SDS011;1733;42.286;22.690;2023-07-31T13:46:47;5.70;;;4.45;;
3439;SDS011;1733;42.286;22.690;2023-07-31T13:49:14;5.28;;;4.78;;
3439;SDS011;1733;42.286;22.690;2023-07-31T13:51:41;4.05;;;3.72;;
3439;SDS011;1733;42.286;22.690;2023-07-31T13:54:10;4.28;;;3.92;;
3439;SDS011;1733;42.286;22.690;2023-07-31T13:56:38;4.63;;;4.28;;
3439;SDS011;1733;42.286;22.690;2023-07-31T13:59:05;5.72;;;4.80;;
3439;SDS011;1733;42.286;22.690;2023-07-31T14:01:32;4.70;;;4.25;;
3439;SDS011;1733;42.286;22.690;2023-07-31T14:03:59;4.22;;;3.67;;
3439;SDS011;1733;42.286;22.690;2023-07-31T14:06:26;4.65;;;4.25;;
3439;SDS011;1733;42.286;22.690;2023-07-31T14:08:53;5.05;;;4.07;;
3439;SDS011;1733;42.286;22.690;2023-07-31T14:11:22;6.18;;;5.30;;
3439;SDS011;1733;42.286;22.690;2023-07-31T14:13:49;5.22;;;4.65;;
3439;SDS011;1733;42.286;22.690;2023-07-31T14:16:16;6.25;;;5.20;;
3439;SDS011;1733;42.286;22.690;2023-07-31T14:18:43;4.10;;;3.75;;
3439;SDS011;1733;42.286;22.690;2023-07-31T14:21:10;4.53;;;3.72;;
3439;SDS011;1733;42.286;22.690;2023-07-31T14:23:37;5.15;;;4.18;;
3439;SDS011;1733;42.286;22.690;2023-07-31T14:26:04;5.10;;;4.18;;
3439;SDS011;1733;42.286;22.690;2023-07-31T14:28:32;5.28;;;4.78;;
3439;SDS011;1733;42.286;22.690;2023-07-31T14:30:59;5.00;;;4.60;;
3439;SDS011;1733;42.286;22.690;2023-07-31T14:33:26;5.10;;;4.70;;
3439;SDS011;1733;42.286;22.690;2023-07-31T14:35:53;4.80;;;4.40;;
3439;SDS011;1733;42.286;22.690;2023-07-31T14:38:20;3.22;;;2.95;;
3439;SDS011;1733;42.286;22.690;2023-07-31T14:40:47;4.32;;;3.92;;
3439;SDS011;1733;42.286;22.690;2023-07-31T14:43:14;4.85;;;4.25;;
3439;SDS011;1733;42.286;22.690;2023-07-31T14:45:43;3.60;;;3.30;;
3439;SDS011;1733;42.286;22.690;2023-07-31T14:48:11;4.72;;;4.13;;
3439;SDS011;1733;42.286;22.690;2023-07-31T14:50:38;3.95;;;3.65;;
3439;SDS011;1733;42.286;22.690;2023-07-31T14:53:05;5.22;;;4.07;;
3439;SDS011;1733;42.286;22.690;2023-07-31T14:55:32;4.70;;;3.90;;
3439;SDS011;1733;42.286;22.690;2023-07-31T14:57:58;4.35;;;3.95;;
3439;SDS011;1733;42.286;22.690;2023-07-31T15:00:25;3.95;;;3.30;;
3439;SDS011;1733;42.286;22.690;2023-07-31T15:02:54;6.25;;;3.45;;
3439;SDS011;1733;42.286;22.690;2023-07-31T15:05:21;3.28;;;3.00;;
3439;SDS011;1733;42.286;22.690;2023-07-31T15:07:47;3.17;;;2.92;;